Norwood Memorial Airport Norwood US
ICAO: KOWD
IATA: OWD
Category: Medium
Scheduled Services: No

Elevation: 49 ft
TransAlt. 18000 ft.

Airport Communications:
BOSTON APP:124.1
ATIS:119.95
CLNC DEL:121.8
CTAF:126
BOSTON DEP:124.1
GND:121.8
TWR:126

KOWD Zoom In..

Runways:

(A) RW 10 length 3995 ft width 75 ft
LOC 108.30 / hdg 104

(B) RW 17 length 4008 ft width 100 ft
LOC 108.30 / hdg 170

(C) RW 28 length 3995 ft width 75 ft
LOC 108.30 / hdg 284

(D) RW 35 length 4008 ft width 100 ft
LOC 108.30 / hdg 350

Location; KOWD
Day. 21 / Time. 05.53 Zulu
* Altimeter: 30.15
* Temperature: 14° c. 57.2°f.
* Wind from: 000° Speed 00 kn.
Dewpoint: 13° c.
Visibility: 1/4 Statute Miles.
Conditions: Fog.

KOWD 210553Z AUTO 00000KT 1/4SM FG VV002 14/13 A3015 RMK AO2 SLP209 T01390133 10239 20133 57001


Wind - Calm.

 
 
jpsmedia.com for Web Design worldairports.se 2018   terms of use